Fort Stockton, Texas
Current Conditions -  °F | °C
As of 9:53 PM on Wednesday 22 Oct 2014 (Local Time) from KFST Reporting Station
Clear Clear  
Wind Chill: 63°   Ceiling: Unl
Heat Index: 63°   Visibility: 10mi
Dew Point: 59°   Wind: 21mph
Humidity: 87%   Direction: 160°SSE
Pressure: 30.1"   Gusts: 25mph
Location:  30.89°N, 102.88°W
Report Text: KFST 230253Z AUTO 16018G22KT 10SM CLR 17/15 A3010 RMK AO2 SLP159 T01720150 51007
Loading
Personal Weather Stations






























Interactive Weather Map
Tropical Storm Tracking
New forecast layout! Learn more

10-Day Weather Forecast

Advertisements
Track Severe Weather on mobile